Time;durP1;ratioP1;P1;durP2;ratioP2;P2;SDS_P1;SDS_P2;PMS_P1;PMS_P2;Temp;Humidity;BMP_temperature;BMP_pressure;BME280_temperature;BME280_humidity;BME280_pressure;Samples;Min_cycle;Max_cycle;Signal;HPM_P1;HPM_P2
2021/08/01 00:00:15;;;;;;;3.33;1.52;;;;;;;22.12;56.21;100894.16;5014303;28;20025;-58
2021/08/01 00:02:40;;;;;;;2.63;1.50;;;;;;;22.14;56.07;100891.34;5013453;28;20378;-58
2021/08/01 00:05:10;;;;;;;3.00;1.80;;;;;;;22.14;56.14;100894.00;5012901;28;20386;-58
2021/08/01 00:07:36;;;;;;;3.33;1.75;;;;;;;22.12;55.93;100896.81;5013391;28;20034;-57
2021/08/01 00:10:07;;;;;;;3.08;1.55;;;;;;;22.12;56.26;100894.16;5013854;28;20113;-58
2021/08/01 00:12:36;;;;;;;3.13;1.65;;;;;;;22.10;55.91;100888.16;5012434;28;20486;-59
2021/08/01 00:15:08;;;;;;;4.25;1.67;;;;;;;22.09;55.94;100887.31;5012988;28;20467;-58
2021/08/01 00:17:39;;;;;;;2.85;1.67;;;;;;;22.10;56.15;100896.94;5012890;28;20108;-58
2021/08/01 00:20:06;;;;;;;3.08;2.00;;;;;;;22.06;55.91;100884.97;5012198;28;20022;-58
2021/08/01 00:22:31;;;;;;;3.17;1.80;;;;;;;22.08;56.02;100882.19;5012609;28;20359;-57
2021/08/01 00:24:57;;;;;;;3.10;1.70;;;;;;;22.09;56.15;100882.00;5012482;28;20025;-57
2021/08/01 00:27:22;;;;;;;3.33;1.80;;;;;;;22.09;56.21;100876.69;5013043;28;20076;-58
2021/08/01 00:29:47;;;;;;;3.40;1.70;;;;;;;22.09;55.98;100879.34;5013235;28;20436;-57
2021/08/01 00:32:13;;;;;;;3.22;1.50;;;;;;;22.09;56.11;100878.53;5012442;28;20042;-57
2021/08/01 00:34:41;;;;;;;2.90;1.70;;;;;;;22.09;56.08;100873.22;5012646;28;20030;-58
2021/08/01 00:37:06;;;;;;;3.90;1.70;;;;;;;22.08;55.95;100867.06;5013286;28;20389;-57
2021/08/01 00:39:34;;;;;;;2.75;1.50;;;;;;;22.08;56.08;100868.91;5011794;28;20022;-58
2021/08/01 00:41:59;;;;;;;3.05;1.83;;;;;;;22.05;56.20;100864.72;5012766;28;20078;-57
2021/08/01 00:44:25;;;;;;;2.72;1.63;;;;;;;22.07;56.12;100867.22;5012613;28;20033;-58
2021/08/01 00:46:50;;;;;;;3.10;1.70;;;;;;;22.05;56.04;100863.91;5012196;28;20021;-58
2021/08/01 00:49:16;;;;;;;2.80;1.60;;;;;;;22.05;56.04;100867.38;5012461;28;20029;-58
2021/08/01 00:51:41;;;;;;;3.60;1.67;;;;;;;22.04;55.95;100859.56;5012610;28;20140;-58
2021/08/01 00:54:07;;;;;;;3.40;1.85;;;;;;;22.05;56.10;100866.56;5012207;28;20105;-57
2021/08/01 00:56:32;;;;;;;3.42;1.80;;;;;;;22.03;55.81;100858.75;5012414;28;20018;-57
2021/08/01 00:58:58;;;;;;;3.15;1.73;;;;;;;22.05;55.97;100861.25;5011918;28;20041;-57
2021/08/01 01:01:29;;;;;;;3.22;1.70;;;;;;;22.04;55.93;100852.44;5011655;28;20029;-58
2021/08/01 01:04:22;;;;;;;3.58;1.90;;;;;;;22.04;55.89;100862.22;5012632;28;20029;-57
2021/08/01 01:06:50;;;;;;;3.17;1.70;;;;;;;22.03;56.19;100855.22;5012746;28;20394;-58
2021/08/01 01:09:44;;;;;;;3.60;1.80;;;;;;;22.04;56.07;100856.91;5011577;28;20040;-58
2021/08/01 01:12:13;;;;;;;3.45;1.75;;;;;;;22.01;55.94;100855.38;5012465;28;20033;-58
2021/08/01 01:14:55;;;;;;;3.10;1.83;;;;;;;22.01;55.84;100854.56;5010987;28;20326;-58
2021/08/01 01:17:24;;;;;;;3.42;1.80;;;;;;;22.03;55.73;100853.44;5001402;28;20065;-58
2021/08/01 01:20:14;;;;;;;4.22;1.90;;;;;;;22.01;56.02;100849.25;5012439;28;20097;-57
2021/08/01 01:22:46;;;;;;;3.28;1.70;;;;;;;22.01;56.17;100846.59;5011678;28;20108;-58
2021/08/01 01:25:23;;;;;;;3.80;1.92;;;;;;;22.01;55.89;100850.06;5012652;28;20049;-58
2021/08/01 01:28:20;;;;;;;3.17;1.80;;;;;;;21.99;56.02;100844.09;5012596;28;20026;-58
2021/08/01 01:30:52;;;;;;;3.78;1.63;;;;;;;21.99;55.96;100843.28;5012322;28;20037;-59
2021/08/01 01:33:19;;;;;;;3.45;1.80;;;;;;;21.99;55.71;100849.41;5012162;28;20049;-58
2021/08/01 01:35:51;;;;;;;2.97;1.60;;;;;;;21.99;56.03;100854.72;5011856;28;20557;-58
2021/08/01 01:38:17;;;;;;;3.65;1.70;;;;;;;21.96;55.92;100846.22;5012061;28;20030;-58
2021/08/01 01:40:43;;;;;;;2.70;1.77;;;;;;;21.98;55.90;100847.72;5012252;28;20430;-58
2021/08/01 01:43:09;;;;;;;3.78;1.95;;;;;;;21.95;56.01;100842.72;5011388;28;20026;-58
2021/08/01 01:45:35;;;;;;;3.42;1.77;;;;;;;21.98;56.06;100846.91;5011833;28;20433;-58
2021/08/01 01:48:01;;;;;;;3.45;1.90;;;;;;;21.97;56.00;100848.72;5012551;28;20029;-58
2021/08/01 01:50:27;;;;;;;3.17;1.83;;;;;;;21.96;55.77;100840.91;5011132;28;20018;-57
2021/08/01 01:52:54;;;;;;;3.15;1.70;;;;;;;21.96;55.98;100843.56;5012079;28;20145;-57
2021/08/01 01:55:21;;;;;;;3.75;2.00;;;;;;;21.93;55.58;100834.06;5011910;28;20037;-58
2021/08/01 01:57:46;;;;;;;3.38;1.80;;;;;;;21.96;55.84;100832.94;5011545;28;20475;-58
2021/08/01 02:00:13;;;;;;;3.20;1.85;;;;;;;21.92;55.43;100827.09;5012399;28;20083;-58
2021/08/01 02:02:44;;;;;;;3.40;1.80;;;;;;;21.94;55.63;100830.44;5011938;28;20032;-58
2021/08/01 02:05:10;;;;;;;3.78;1.90;;;;;;;21.94;55.85;100833.09;5011450;28;20033;-58
2021/08/01 02:07:38;;;;;;;3.10;1.70;;;;;;;21.94;55.82;100830.44;5011572;28;20030;-58
2021/08/01 02:10:25;;;;;;;3.42;1.90;;;;;;;21.93;55.58;100824.28;5011970;28;20101;-58
2021/08/01 02:12:55;;;;;;;3.22;1.77;;;;;;;21.94;55.57;100825.16;5011718;28;20045;-58
2021/08/01 02:15:24;;;;;;;4.10;1.90;;;;;;;21.92;55.50;100825.28;5011709;28;20052;-58
2021/08/01 02:18:02;;;;;;;4.22;1.98;;;;;;;21.92;55.62;100827.09;5011022;28;20554;-58
2021/08/01 02:20:37;;;;;;;2.95;1.70;;;;;;;21.91;55.56;100826.25;5011589;28;20072;-58
2021/08/01 02:23:05;;;;;;;3.38;1.95;;;;;;;21.90;55.38;100823.75;5011829;28;20386;-57
2021/08/01 02:25:30;;;;;;;3.50;1.90;;;;;;;21.90;55.60;100826.41;5011031;28;20045;-58
2021/08/01 02:27:57;;;;;;;3.22;1.80;;;;;;;21.91;55.68;100834.22;5015291;28;20026;-58
2021/08/01 02:30:26;;;;;;;3.15;1.90;;;;;;;21.91;55.37;100841.34;5015250;28;20026;-58
2021/08/01 02:32:52;;;;;;;2.78;1.80;;;;;;;21.90;55.67;100835.22;5014640;28;20382;-58
2021/08/01 02:35:19;;;;;;;3.80;1.88;;;;;;;21.90;55.54;100829.06;5014858;28;20037;-58
2021/08/01 02:37:45;;;;;;;3.50;1.70;;;;;;;21.90;55.56;100837.03;5015482;28;20068;-57
2021/08/01 02:40:14;;;;;;;3.63;1.67;;;;;;;21.89;55.79;100835.38;5014699;28;20049;-57
2021/08/01 02:42:43;;;;;;;3.15;1.63;;;;;;;21.89;55.67;100836.19;5015230;28;20072;-58
2021/08/01 02:45:09;;;;;;;3.13;1.60;;;;;;;21.89;55.28;100832.72;5015164;28;20026;-57
2021/08/01 02:47:35;;;;;;;3.10;1.80;;;;;;;21.89;55.47;100832.72;5014102;28;20034;-57
2021/08/01 02:50:03;;;;;;;3.03;1.65;;;;;;;21.88;55.51;100825.75;5014971;28;20030;-57
2021/08/01 02:52:38;;;;;;;5.40;1.90;;;;;;;21.86;55.37;100830.38;5013646;28;20156;-58
2021/08/01 02:55:05;;;;;;;3.03;1.60;;;;;;;21.87;55.23;100827.56;5015129;28;20044;-58
2021/08/01 02:57:33;;;;;;;2.88;1.80;;;;;;;21.86;55.24;100822.41;5014546;28;20026;-57
2021/08/01 03:00:01;;;;;;;3.60;1.77;;;;;;;21.87;55.31;100830.22;5014024;28;20462;-57
2021/08/01 03:02:28;;;;;;;4.03;2.05;;;;;;;21.87;55.33;100830.22;5014320;28;20129;-57
2021/08/01 03:04:54;;;;;;;3.40;1.60;;;;;;;21.85;55.34;100826.03;5014738;28;20033;-58
2021/08/01 03:07:20;;;;;;;3.65;1.90;;;;;;;21.86;55.19;100822.41;5013820;28;20046;-58
2021/08/01 03:09:45;;;;;;;3.10;1.70;;;;;;;21.86;55.06;100822.41;5014933;28;20076;-58
2021/08/01 03:12:13;;;;;;;3.92;1.70;;;;;;;21.85;54.97;100831.34;5014755;28;20486;-59
2021/08/01 03:14:38;;;;;;;4.03;1.80;;;;;;;21.86;55.33;100827.72;5013496;28;20028;-58
2021/08/01 03:17:04;;;;;;;2.63;1.50;;;;;;;21.83;55.29;100826.19;5014814;28;20476;-59
2021/08/01 03:19:32;;;;;;;3.05;1.50;;;;;;;21.82;55.30;100823.69;5014285;28;20487;-58
2021/08/01 03:21:58;;;;;;;4.10;1.70;;;;;;;21.83;54.95;100834.13;5013844;28;20437;-58
2021/08/01 03:24:25;;;;;;;3.90;1.70;;;;;;;21.83;55.05;100838.63;5014313;28;20458;-58
2021/08/01 03:26:51;;;;;;;4.00;1.77;;;;;;;21.83;55.21;100834.13;5014513;28;20267;-58
2021/08/01 03:29:16;;;;;;;3.95;1.77;;;;;;;21.83;55.13;100838.63;5013272;28;20441;-58
2021/08/01 03:31:41;;;;;;;3.67;1.80;;;;;;;21.81;55.23;100828.16;5014331;28;20029;-58
2021/08/01 03:34:09;;;;;;;3.28;1.70;;;;;;;21.82;55.07;100831.63;5014278;28;20271;-58
2021/08/01 03:36:38;;;;;;;3.50;1.80;;;;;;;21.81;54.82;100824.66;5013398;28;20034;-58
2021/08/01 03:39:04;;;;;;;3.30;1.60;;;;;;;21.80;54.96;100821.19;5013250;28;20486;-58
2021/08/01 03:41:29;;;;;;;3.22;1.70;;;;;;;21.78;54.93;100822.28;5013865;28;20022;-58
2021/08/01 03:43:55;;;;;;;5.17;1.73;;;;;;;21.78;55.12;100824.94;5013353;28;20084;-58
2021/08/01 03:46:20;;;;;;;3.95;1.60;;;;;;;21.77;54.90;100815.34;5013707;28;20346;-57
2021/08/01 03:48:45;;;;;;;3.78;1.67;;;;;;;21.76;54.90;100819.78;5013596;28;20378;-57
2021/08/01 03:51:11;;;;;;;3.85;1.70;;;;;;;21.79;54.95;100834.59;5015899;28;20375;-59
2021/08/01 03:53:36;;;;;;;3.67;1.90;;;;;;;21.77;54.98;100837.38;5013317;28;20124;-58
2021/08/01 03:56:03;;;;;;;2.97;1.60;;;;;;;21.78;54.91;100833.75;5013407;28;20080;-58
2021/08/01 03:58:28;;;;;;;3.28;1.80;;;;;;;21.78;55.12;100836.41;5013779;28;20025;-59
2021/08/01 04:00:54;;;;;;;3.60;1.70;;;;;;;21.78;54.83;100836.41;5013801;28;20064;-58
2021/08/01 04:03:19;;;;;;;3.23;1.50;;;;;;;21.77;54.89;100832.09;5013057;28;20160;-59
2021/08/01 04:05:44;;;;;;;3.60;1.90;;;;;;;21.77;54.89;100840.03;5013774;28;20644;-59
2021/08/01 04:08:09;;;;;;;3.67;1.90;;;;;;;21.77;54.78;100844.53;5013901;28;20115;-59
2021/08/01 04:10:35;;;;;;;4.40;2.13;;;;;;;21.77;54.93;100839.22;5012825;28;20164;-58
2021/08/01 04:13:01;;;;;;;4.53;2.15;;;;;;;21.76;54.91;100842.84;5014085;28;20050;-59
2021/08/01 04:15:26;;;;;;;4.93;2.40;;;;;;;21.75;55.00;100839.38;5014200;28;20026;-57
2021/08/01 04:17:51;;;;;;;4.90;2.20;;;;;;;21.75;54.92;100839.38;5013217;28;20034;-59
2021/08/01 04:20:16;;;;;;;4.32;2.30;;;;;;;21.73;55.01;100831.56;5013554;28;20676;-57
2021/08/01 04:22:42;;;;;;;4.90;2.45;;;;;;;21.72;54.79;100829.06;5013700;28;20030;-57
2021/08/01 04:25:09;;;;;;;4.60;2.50;;;;;;;21.74;54.97;100835.84;5013481;28;20133;-57
2021/08/01 04:27:34;;;;;;;5.80;2.85;;;;;;;21.68;54.92;100827.66;5012898;28;20032;-58
2021/08/01 04:30:03;;;;;;;5.25;2.40;;;;;;;21.74;55.01;100838.50;5013848;28;20104;-59
2021/08/01 04:32:28;;;;;;;5.70;3.03;;;;;;;21.74;54.93;100835.03;5012858;28;20454;-58
2021/08/01 04:34:54;;;;;;;5.13;3.07;;;;;;;21.74;55.14;100846.47;5013741;28;20080;-58
2021/08/01 04:37:19;;;;;;;5.20;3.20;;;;;;;21.73;55.07;100841.34;5013194;28;20603;-58
2021/08/01 04:39:44;;;;;;;5.15;3.22;;;;;;;21.73;54.96;100844.81;5012743;28;20022;-58
2021/08/01 04:42:16;;;;;;;6.68;3.50;;;;;;;21.74;55.15;100849.13;5013034;28;20426;-57
2021/08/01 04:44:41;;;;;;;6.10;3.25;;;;;;;21.74;55.13;100845.63;5013082;28;20022;-57
2021/08/01 04:47:06;;;;;;;6.80;3.67;;;;;;;21.71;54.84;100841.50;5012152;28;20378;-58
2021/08/01 04:49:32;;;;;;;6.63;3.60;;;;;;;21.73;54.96;100844.00;5012744;28;20270;-57
2021/08/01 04:51:57;;;;;;;7.57;3.80;;;;;;;21.72;54.87;100837.81;5012871;28;20380;-57
2021/08/01 04:54:22;;;;;;;6.23;3.80;;;;;;;21.73;55.20;100842.16;5011690;28;20440;-58
2021/08/01 04:56:47;;;;;;;6.57;3.65;;;;;;;21.73;54.93;100839.50;5013062;28;20309;-58
2021/08/01 04:59:17;;;;;;;6.60;4.00;;;;;;;21.71;55.13;100838.84;5012027;28;20491;-58
2021/08/01 05:01:45;;;;;;;6.45;3.50;;;;;;;21.72;55.09;100845.78;5013225;28;20334;-58
2021/08/01 05:04:10;;;;;;;5.65;3.35;;;;;;;21.71;54.81;100836.19;5012822;28;20112;-58
2021/08/01 05:06:36;;;;;;;5.38;3.53;;;;;;;21.72;55.35;100837.00;5011853;28;20105;-58
2021/08/01 05:09:01;;;;;;;5.57;3.22;;;;;;;21.71;55.13;100837.97;5012919;28;20041;-59
2021/08/01 05:11:26;;;;;;;6.13;3.67;;;;;;;21.71;55.08;100846.78;5012429;28;20033;-57
2021/08/01 05:13:51;;;;;;;6.95;3.70;;;;;;;21.68;55.09;100844.44;5011955;28;20533;-58
2021/08/01 05:16:17;;;;;;;8.83;3.90;;;;;;;21.69;55.02;100843.44;5012140;28;20022;-59
2021/08/01 05:18:43;;;;;;;5.90;4.18;;;;;;;21.71;55.28;100846.78;5012595;28;20341;-57
2021/08/01 05:21:09;;;;;;;6.03;3.55;;;;;;;21.71;55.17;100846.78;5011694;28;20030;-58
2021/08/01 05:23:34;;;;;;;6.00;4.00;;;;;;;21.70;55.11;100846.94;5012185;28;20049;-58
2021/08/01 05:25:59;;;;;;;6.78;3.53;;;;;;;21.70;55.30;100853.06;5012525;28;20486;-57
2021/08/01 05:28:24;;;;;;;6.78;3.55;;;;;;;21.70;55.22;100846.94;5011283;28;20044;-58
2021/08/01 05:30:50;;;;;;;6.30;3.50;;;;;;;21.69;55.26;100842.59;5012445;28;20037;-57
2021/08/01 05:33:15;;;;;;;4.85;3.13;;;;;;;21.69;55.04;100840.78;5012216;28;20033;-57
2021/08/01 05:35:43;;;;;;;6.17;3.73;;;;;;;21.68;54.96;100836.47;5011910;28;20037;-58
2021/08/01 05:38:08;;;;;;;5.50;3.55;;;;;;;21.69;54.98;100840.78;5012436;28;20271;-58
2021/08/01 05:40:34;;;;;;;6.60;3.70;;;;;;;21.69;55.15;100838.13;5011889;28;20390;-58
2021/08/01 05:42:59;;;;;;;6.03;3.83;;;;;;;21.67;54.89;100837.44;5011614;28;20037;-58
2021/08/01 05:45:26;;;;;;;7.22;3.90;;;;;;;21.69;55.07;100843.44;5012033;28;20115;-58
2021/08/01 05:47:52;;;;;;;5.75;3.65;;;;;;;21.68;54.96;100839.13;5012183;28;20403;-58
2021/08/01 05:50:20;;;;;;;4.90;3.30;;;;;;;21.67;55.07;100841.94;5011331;28;20029;-57
2021/08/01 05:52:46;;;;;;;6.40;3.92;;;;;;;21.68;55.02;100839.13;5011281;28;20045;-58
2021/08/01 05:55:11;;;;;;;7.47;3.95;;;;;;;21.65;54.98;100841.22;5012158;28;20116;-58
2021/08/01 05:57:36;;;;;;;6.55;3.42;;;;;;;21.66;55.18;100838.41;5011142;28;20120;-57
2021/08/01 06:00:04;;;;;;;6.75;3.80;;;;;;;21.64;54.99;100832.44;5012049;28;20022;-58
2021/08/01 06:02:29;;;;;;;5.63;3.55;;;;;;;21.66;55.11;100835.75;5013831;28;20030;-59
2021/08/01 06:04:56;;;;;;;6.47;3.38;;;;;;;21.68;55.24;100840.94;5015992;28;20052;-58
2021/08/01 06:07:21;;;;;;;6.25;3.55;;;;;;;21.64;55.09;100845.69;5015700;28;20101;-59
2021/08/01 06:09:47;;;;;;;5.70;3.43;;;;;;;21.65;55.04;100846.53;5015224;28;20465;-57
2021/08/01 06:12:13;;;;;;;6.15;3.30;;;;;;;21.64;55.00;100850.19;5015745;28;20677;-58
2021/08/01 06:14:38;;;;;;;5.20;3.17;;;;;;;21.64;55.11;100845.69;5015721;28;20025;-58
2021/08/01 06:17:04;;;;;;;5.78;3.50;;;;;;;21.63;54.92;100844.03;5015005;28;20099;-58
2021/08/01 06:19:29;;;;;;;4.70;3.00;;;;;;;21.65;54.93;100844.72;5015663;28;20022;-59
2021/08/01 06:21:54;;;;;;;5.82;3.03;;;;;;;21.65;55.26;100841.22;5015682;28;20050;-57
2021/08/01 06:24:20;;;;;;;5.80;3.60;;;;;;;21.65;54.97;100843.88;5014527;28;20049;-57
2021/08/01 06:26:45;;;;;;;5.50;3.28;;;;;;;21.65;55.18;100838.56;5015592;28;20299;-58
2021/08/01 06:29:13;;;;;;;6.00;3.50;;;;;;;21.65;55.08;100841.22;5015715;28;20018;-58
2021/08/01 06:31:38;;;;;;;6.18;3.25;;;;;;;21.65;55.25;100855.34;5014435;28;20647;-57
2021/08/01 06:34:04;;;;;;;5.77;3.20;;;;;;;21.61;55.16;100848.66;5015628;28;20026;-57
2021/08/01 06:36:29;;;;;;;5.47;3.03;;;;;;;21.62;54.99;100847.66;5015219;28;20702;-57
2021/08/01 06:38:54;;;;;;;4.80;3.00;;;;;;;21.63;55.04;100849.31;5014563;28;20541;-59
2021/08/01 06:41:19;;;;;;;4.90;3.00;;;;;;;21.66;54.96;100853.50;5014831;28;20290;-59
2021/08/01 06:43:47;;;;;;;5.47;3.10;;;;;;;21.65;55.04;100850.03;5015528;28;20101;-58
2021/08/01 06:46:13;;;;;;;5.45;3.28;;;;;;;21.63;54.96;100848.50;5014829;28;20287;-58
2021/08/01 06:48:58;;;;;;;6.03;3.30;;;;;;;21.63;54.81;100848.50;5015041;28;20026;-59
2021/08/01 06:51:23;;;;;;;5.55;2.95;;;;;;;21.61;55.18;100853.94;5013642;28;20275;-57
2021/08/01 06:53:49;;;;;;;7.13;3.00;;;;;;;21.61;55.22;100853.13;5014219;28;20046;-57
2021/08/01 06:56:14;;;;;;;5.83;2.90;;;;;;;21.61;55.27;100853.94;5015287;28;20802;-58
2021/08/01 06:58:42;;;;;;;5.95;3.05;;;;;;;21.62;55.42;100860.06;5014359;28;20276;-58
2021/08/01 07:01:10;;;;;;;5.80;3.10;;;;;;;21.63;55.16;100867.06;5015008;28;20026;-59
2021/08/01 07:03:36;;;;;;;5.15;3.20;;;;;;;21.62;55.41;100862.72;5014852;28;20101;-58
2021/08/01 07:06:01;;;;;;;6.33;3.23;;;;;;;21.63;55.57;100865.22;5014397;28;20120;-58
2021/08/01 07:08:26;;;;;;;7.40;3.10;;;;;;;21.62;55.62;100860.94;5013895;28;20275;-56
2021/08/01 07:10:51;;;;;;;6.22;3.22;;;;;;;21.66;55.64;100858.81;5015165;28;20793;-57
2021/08/01 07:13:17;;;;;;;4.72;2.85;;;;;;;21.67;55.54;100855.19;5012760;28;20030;-58
2021/08/01 07:15:42;;;;;;;8.98;3.20;;;;;;;21.69;55.76;100863.81;5014890;28;20105;-59
2021/08/01 07:18:07;;;;;;;6.30;2.90;;;;;;;21.70;55.87;100868.97;5014953;28;20033;-66
2021/08/01 07:20:34;;;;;;;5.40;3.28;;;;;;;21.70;55.70;100866.31;5013826;28;20034;-57
2021/08/01 07:22:59;;;;;;;5.32;2.85;;;;;;;21.70;56.15;100870.81;5014520;28;20049;-57
2021/08/01 07:25:28;;;;;;;6.95;3.25;;;;;;;21.72;56.30;100866.19;5014642;28;20034;-57
2021/08/01 07:27:53;;;;;;;6.65;3.67;;;;;;;21.72;56.28;100868.84;5013120;28;20037;-56
2021/08/01 07:30:20;;;;;;;8.20;3.63;;;;;;;21.70;56.09;100865.50;5014603;28;20025;-58
2021/08/01 07:32:45;;;;;;;8.45;4.00;;;;;;;21.67;55.92;100868.44;5014861;28;20021;-58
2021/08/01 07:35:22;;;;;;;6.47;4.43;;;;;;;21.66;55.67;100872.06;5013878;28;20032;-58
2021/08/01 07:37:48;;;;;;;8.10;4.30;;;;;;;21.62;55.72;100876.00;5015127;28;20556;-58
2021/08/01 07:40:13;;;;;;;8.43;4.05;;;;;;;21.63;55.76;100877.66;5017580;28;20022;-58
2021/08/01 07:42:42;;;;;;;6.72;3.67;;;;;;;21.56;55.64;100872.94;5014899;28;20034;-58
2021/08/01 07:45:16;;;;;;;7.57;4.10;;;;;;;21.58;56.19;100879.94;5015665;28;20105;-59
2021/08/01 07:47:41;;;;;;;6.75;4.43;;;;;;;21.59;55.86;100884.22;5017175;28;20034;-60
2021/08/01 07:50:06;;;;;;;6.10;3.70;;;;;;;21.59;56.14;100884.22;5014606;28;20121;-60
2021/08/01 07:52:41;;;;;;;8.27;4.45;;;;;;;21.58;56.06;100879.94;5014453;28;20514;-59
2021/08/01 07:55:08;;;;;;;6.70;4.07;;;;;;;21.57;56.00;100881.75;5013343;28;20125;-61
2021/08/01 07:57:34;;;;;;;8.30;3.90;;;;;;;21.55;56.01;100881.91;5014622;28;20404;-59
2021/08/01 08:00:06;;;;;;;8.10;4.15;;;;;;;21.56;56.27;100878.25;5014801;28;20109;-58
2021/08/01 08:02:31;;;;;;;5.72;3.88;;;;;;;21.59;55.93;100881.59;5013910;28;20041;-59
2021/08/01 08:04:57;;;;;;;7.65;3.58;;;;;;;21.62;55.95;100874.19;5014804;28;20022;-59
2021/08/01 08:07:22;;;;;;;6.77;4.07;;;;;;;21.65;56.21;100876.56;5015680;28;20041;-60
2021/08/01 08:09:49;;;;;;;9.07;4.30;;;;;;;21.67;56.49;100871.09;5014639;28;20631;-58
2021/08/01 08:12:15;;;;;;;6.65;3.67;;;;;;;21.66;56.20;100872.06;5014172;28;20072;-59
2021/08/01 08:14:40;;;;;;;8.20;3.40;;;;;;;21.67;56.31;100871.09;5014677;28;20026;-61
2021/08/01 08:17:06;;;;;;;5.55;3.20;;;;;;;21.69;56.38;100875.25;5013891;28;20080;-58
2021/08/01 08:19:31;;;;;;;7.22;3.85;;;;;;;21.69;56.21;100877.09;5014350;28;20030;-59
2021/08/01 08:21:57;;;;;;;7.72;4.18;;;;;;;21.68;56.05;100873.59;5016375;28;20038;-60
2021/08/01 08:24:31;;;;;;;6.57;3.85;;;;;;;21.70;56.02;100873.47;5013939;28;20049;-58
2021/08/01 08:26:56;;;;;;;;;;;;;;;21.71;56.02;100872.47;5015069;28;20036;-59
2021/08/01 08:29:23;;;;;;;7.57;3.90;;;;;;;21.70;56.06;100863.69;5014490;28;19913;-59
2021/08/01 08:31:53;;;;;;;5.93;3.72;;;;;;;21.72;55.93;100867.00;5013668;28;20033;-59
2021/08/01 08:34:20;;;;;;;7.03;4.28;;;;;;;21.71;55.84;100864.50;5013893;28;20022;-59
2021/08/01 08:36:49;;;;;;;6.63;4.28;;;;;;;21.69;55.98;100871.78;5014353;28;20159;-59
2021/08/01 08:39:16;;;;;;;8.73;4.72;;;;;;;21.68;55.69;100875.41;5013246;28;20026;-58
2021/08/01 08:41:45;;;;;;;7.22;4.68;;;;;;;21.65;55.67;100873.91;5014023;28;20029;-58
2021/08/01 08:44:10;;;;;;;7.55;5.18;;;;;;;21.62;55.57;100873.34;5011787;28;20034;-58
2021/08/01 08:46:40;;;;;;;6.25;3.80;;;;;;;21.58;55.84;100874.63;5013188;28;20049;-56
2021/08/01 08:49:15;;;;;;;6.35;3.78;;;;;;;21.59;55.96;100884.22;5013303;28;20439;-58
2021/08/01 08:51:43;;;;;;;6.13;4.10;;;;;;;21.59;56.12;100874.47;5012987;28;20060;-60
2021/08/01 08:54:47;;;;;;;7.65;4.35;;;;;;;21.61;56.20;100884.94;5013497;28;20025;-60
2021/08/01 08:57:37;;;;;;;6.63;3.90;;;;;;;21.67;56.49;100885.19;5010237;28;20034;-58
2021/08/01 09:00:08;;;;;;;6.35;3.72;;;;;;;21.68;56.58;100891.31;5011827;28;20068;-57
2021/08/01 09:02:36;;;;;;;7.47;3.50;;;;;;;21.70;56.58;100892.84;5012473;28;20140;-58
2021/08/01 09:05:03;;;;;;;8.10;4.13;;;;;;;21.77;56.67;100892.25;5012560;28;20036;-59
2021/08/01 09:07:31;;;;;;;6.13;3.70;;;;;;;21.80;56.86;100892.78;5012011;28;20109;-57
2021/08/01 09:09:56;;;;;;;6.30;3.33;;;;;;;21.85;56.55;100889.69;5011976;28;20049;-58
2021/08/01 09:12:22;;;;;;;7.68;3.83;;;;;;;21.84;57.01;100883.56;5011795;28;20025;-57
2021/08/01 09:14:48;;;;;;;5.90;3.80;;;;;;;21.91;57.17;100900.56;5012719;28;20083;-57
2021/08/01 09:17:33;;;;;;;6.30;3.50;;;;;;;21.93;57.05;100889.78;5012536;28;20050;-56
2021/08/01 09:20:12;;;;;;;6.70;3.50;;;;;;;21.96;57.07;100899.28;5011975;28;20129;-57
2021/08/01 09:22:37;;;;;;;7.13;3.58;;;;;;;21.98;57.27;100897.31;5011976;28;20041;-57
2021/08/01 09:25:18;;;;;;;6.53;3.50;;;;;;;22.00;57.21;100897.97;5012475;28;20018;-57
2021/08/01 09:27:44;;;;;;;5.90;3.65;;;;;;;22.01;57.55;100897.00;5011765;28;20041;-58
2021/08/01 09:30:10;;;;;;;6.22;3.50;;;;;;;22.03;57.39;100895.88;5012313;28;20022;-58
2021/08/01 09:32:49;;;;;;;5.72;3.58;;;;;;;22.04;57.81;100892.22;5011990;28;20076;-58
2021/08/01 09:35:17;;;;;;;6.97;3.70;;;;;;;22.06;58.04;100900.91;5011273;28;20021;-57
2021/08/01 09:37:42;;;;;;;7.00;4.10;;;;;;;22.07;57.60;100899.06;5015701;28;20026;-58
2021/08/01 09:40:10;;;;;;;8.57;3.53;;;;;;;22.06;57.72;100897.41;5016416;28;20030;-58
2021/08/01 09:43:06;;;;;;;6.38;3.63;;;;;;;22.07;57.86;100894.59;5015046;28;20076;-58
2021/08/01 09:45:32;;;;;;;7.40;4.03;;;;;;;22.10;58.36;100898.78;5016173;28;20084;-57
2021/08/01 09:48:17;;;;;;;10.95;4.10;;;;;;;22.11;58.10;100897.78;5015618;28;20018;-58
2021/08/01 09:51:00;;;;;;;7.13;4.35;;;;;;;22.12;58.24;100893.31;5016230;28;20018;-58
2021/08/01 09:53:26;;;;;;;5.63;3.63;;;;;;;22.14;58.17;100894.00;5015627;28;20050;-58
2021/08/01 09:56:12;;;;;;;7.30;4.07;;;;;;;22.14;58.16;100901.97;5015674;28;20076;-58
2021/08/01 09:58:38;;;;;;;7.97;4.40;;;;;;;22.10;58.36;100899.59;5015717;28;20026;-59
2021/08/01 10:01:04;;;;;;;5.80;4.20;;;;;;;22.13;57.91;100892.31;5016029;28;20033;-57
2021/08/01 10:03:36;;;;;;;6.97;3.67;;;;;;;22.15;58.05;100896.50;5015040;28;20029;-59
2021/08/01 10:06:17;;;;;;;8.10;4.00;;;;;;;22.15;58.18;100891.19;5016119;28;20049;-60
2021/08/01 10:08:50;;;;;;;6.72;4.15;;;;;;;22.16;57.83;100890.22;5015055;28;20053;-59
2021/08/01 10:11:20;;;;;;;6.68;3.95;;;;;;;22.16;58.25;100892.88;5015533;28;20034;-59
2021/08/01 10:13:47;;;;;;;5.72;3.90;;;;;;;22.17;57.83;100893.69;5015879;28;20062;-60
2021/08/01 10:16:33;;;;;;;8.90;4.18;;;;;;;22.16;57.92;100892.03;5016270;28;20076;-58
2021/08/01 10:18:58;;;;;;;7.90;4.35;;;;;;;22.16;58.05;100892.03;5015614;28;20049;-60
2021/08/01 10:21:24;;;;;;;7.87;4.30;;;;;;;22.16;58.09;100897.31;5015768;28;20030;-59
2021/08/01 10:23:57;;;;;;;8.30;4.53;;;;;;;22.16;58.08;100890.22;5015781;28;20290;-58
2021/08/01 10:26:33;;;;;;;7.25;3.88;;;;;;;22.13;58.24;100890.53;5015216;28;20032;-58
2021/08/01 10:29:02;;;;;;;7.30;4.55;;;;;;;22.12;57.89;100890.66;5015419;28;20466;-59
2021/08/01 10:31:34;;;;;;;7.22;4.00;;;;;;;22.10;58.20;100890.81;5014292;28;20470;-59
2021/08/01 10:34:20;;;;;;;7.13;4.25;;;;;;;22.09;57.94;100891.78;5015500;28;20057;-58
2021/08/01 10:36:48;;;;;;;7.95;4.93;;;;;;;22.08;57.91;100892.78;5014623;28;20076;-58
2021/08/01 10:39:15;;;;;;;7.15;4.15;;;;;;;22.07;58.04;100888.47;5015488;28;20029;-57
2021/08/01 10:41:44;;;;;;;6.30;4.50;;;;;;;22.05;58.48;100883.31;5015320;28;20366;-59
2021/08/01 10:44:12;;;;;;;9.48;4.65;;;;;;;22.06;58.41;100877.03;5014236;28;20041;-58
2021/08/01 10:46:39;;;;;;;7.38;4.70;;;;;;;22.06;58.34;100892.09;5014704;28;20046;-59
2021/08/01 10:49:06;;;;;;;7.30;4.18;;;;;;;22.06;58.61;100884.97;5015118;28;20060;-59
2021/08/01 10:51:33;;;;;;;7.40;4.60;;;;;;;22.00;58.77;100877.63;5014326;28;20048;-59
2021/08/01 10:54:20;;;;;;;7.47;4.50;;;;;;;22.06;58.89;100898.25;5014924;28;20074;-59
2021/08/01 10:56:46;;;;;;;7.57;4.30;;;;;;;22.08;58.78;100904.22;5016900;28;20497;-60
2021/08/01 10:59:56;;;;;;;6.45;4.18;;;;;;;22.09;58.78;100897.91;5015952;28;20100;-59
2021/08/01 11:02:26;;;;;;;7.65;4.10;;;;;;;22.05;58.56;100890.44;5015141;28;20038;-59
2021/08/01 11:04:52;;;;;;;8.27;4.53;;;;;;;22.08;58.98;100901.59;5015119;28;20466;-60
2021/08/01 11:07:27;;;;;;;7.60;4.20;;;;;;;22.08;58.79;100898.09;5015652;28;20022;-59
2021/08/01 11:10:05;;;;;;;7.95;4.30;;;;;;;22.07;58.78;100894.59;5015516;28;20026;-58
2021/08/01 11:12:34;;;;;;;6.95;3.97;;;;;;;22.08;58.85;100895.44;5014423;28;20033;-60
2021/08/01 11:15:01;;;;;;;6.10;3.85;;;;;;;22.07;58.65;100893.75;5014824;28;20093;-58
2021/08/01 11:17:54;;;;;;;7.15;3.78;;;;;;;22.08;58.84;100896.28;5014448;28;20087;-58
2021/08/01 11:20:20;;;;;;;8.68;3.80;;;;;;;22.08;58.67;100893.63;5013850;28;20520;-57
2021/08/01 11:22:51;;;;;;;6.07;3.67;;;;;;;22.08;58.62;100900.75;5014783;28;20038;-57
2021/08/01 11:25:17;;;;;;;5.47;3.60;;;;;;;22.05;58.63;100888.59;5014388;28;20057;-59
2021/08/01 11:28:09;;;;;;;6.55;3.67;;;;;;;22.07;58.91;100891.94;5013631;28;20421;-59
2021/08/01 11:30:49;;;;;;;6.28;3.78;;;;;;;22.09;59.34;100897.91;5014110;28;20328;-60